Terminal Aerodrome Forecast
Issued by NWS New Orleans/Baton Rouge, LA

Home | Current Version | Previous Version | Text Only | Print | Product List | Glossary On
Versions: 1 2 3 4 5 6 7 8 9 10 11 12 13 14 15 16 17
000
FTUS44 KLIX 180540 AAA
TAFBTR
TAF AMD
KBTR 180540Z 1806/1906 16006KT P6SM SCT250
     FM181200 19007KT 6SM BR SCT003 BKN080
     FM181400 20011KT P6SM SCT008 BKN025
     FM182000 23016KT P6SM SCT020 BKN025 PROB30 1820/1901 4SM -SHRA
      BKN015 BKN020
     FM190100 29010KT P6SM SCT010 BKN050 PROB30 1901/1902 4SM -SHRA
      BKN010
     FM190300 34012KT P6SM FEW010 SCT050=

USA.gov is the U.S. government's official web portal to all federal, state and local government web resources and services.